KGAO

Details ICAO KGAO
Name SOUTH LAFOURCHE
Region United States
Timezone America/Chicago (UTC-5.0)
Plans Departing 7
Arriving 6
Stats Elevation 1 ft / 0 m (AMSL)
Location 29.444800° -90.261100°
Runways 1
Magnetic Variation 0.847° W
Sunrise 2019-05-19 11:08:00 UTC / 2019-05-19 06:08:00 Local
Sunset 2019-05-20 00:49:52 UTC / 2019-05-19 19:49:52 Local
Advertisement - Login to hide

Runways

ID Width Length Bearing (true/mag) Surface Threshold Overrun Markings Lighting
18 75 ft / 23 m 3,814 ft / 1,162 m 180.58° / 181.43° ASPHALT 0 ft / 0 m 0 ft / 0 m APP EDGE THRESHOLD REIL-OMNI
36 75 ft / 23 m 3,814 ft / 1,162 m 0.58° / 1.43° ASPHALT 0 ft / 0 m 0 ft / 0 m APP EDGE THRESHOLD

Map

Weather


0- 5 10 15 20 25 30 35+ Temperature / °C

Clouds and Precipitation
Forecast for 2019-05-19 06:00 UTC. Updated 3 hours ago

Ground ~20,000 ft ~40,000 ft Winds

METAR

KGAO 190635Z AUTO 14007G14KT 120V180 10SM OVC012 26/23 A2989 RMK AO2 T02580225

TAF

Not found

Frequencies

Approach 123.85 MHz NEW ORLEANS APP/DEP
Unicom 123.00 MHz UNICOM CTAF
Recorded 118.17 MHz AWOS 3
Warning: Do not use this data for real-world aviation or navigation. No guarantee of current accuracy is given.